createdAt,value
2023-01-01T00:02:23.911Z,991.5
2023-01-01T00:04:49.967Z,991.4
2023-01-01T00:07:16.173Z,991.4
2023-01-01T00:09:41.251Z,991.4
2023-01-01T00:12:07.272Z,991.4
2023-01-01T00:14:33.369Z,991.5
2023-01-01T00:16:59.562Z,991.4
2023-01-01T00:19:25.592Z,991.5
2023-01-01T00:21:51.715Z,991.5
2023-01-01T00:24:17.834Z,991.6
2023-01-01T00:26:44.037Z,991.5
2023-01-01T00:29:10.043Z,991.5
2023-01-01T00:31:36.101Z,991.5
2023-01-01T00:34:02.623Z,991.4
2023-01-01T00:36:28.352Z,991.4
2023-01-01T00:38:54.443Z,991.4
2023-01-01T00:41:19.558Z,991.4
2023-01-01T00:43:45.678Z,991.4
2023-01-01T00:46:11.622Z,991.3
2023-01-01T00:48:37.743Z,991.4
2023-01-01T00:51:03.908Z,991.3
2023-01-01T00:53:29.937Z,991.3
2023-01-01T00:55:56.009Z,991.3
2023-01-01T00:58:22.138Z,991.4
2023-01-01T01:00:48.641Z,991.4
2023-01-01T01:03:14.357Z,991.4
2023-01-01T01:05:40.600Z,991.4
2023-01-01T01:08:06.631Z,991.4
2023-01-01T01:10:32.719Z,991.4
2023-01-01T01:12:57.816Z,991.4
2023-01-01T01:15:23.821Z,991.3
2023-01-01T01:17:50.093Z,991.3
2023-01-01T01:20:16.074Z,991.3
2023-01-01T01:22:42.169Z,991.3
2023-01-01T01:25:08.257Z,991.4
2023-01-01T01:27:34.396Z,991.3
2023-01-01T01:30:00.520Z,991.3
2023-01-01T01:32:26.544Z,991.3
2023-01-01T01:34:52.632Z,991.3
2023-01-01T01:37:18.726Z,991.4
2023-01-01T01:39:44.754Z,991.4
2023-01-01T01:42:10.956Z,991.4
2023-01-01T01:44:35.968Z,991.4
2023-01-01T01:47:02.048Z,991.4
2023-01-01T01:49:28.171Z,991.4
2023-01-01T01:51:54.259Z,991.3
2023-01-01T01:54:20.355Z,991.3
2023-01-01T01:56:46.493Z,991.2
2023-01-01T01:59:12.542Z,991.3
2023-01-01T02:01:38.641Z,991.2
2023-01-01T02:04:04.790Z,991.2
2023-01-01T02:06:30.852Z,991.2
2023-01-01T02:08:56.941Z,991.3
2023-01-01T02:11:23.034Z,991.4
2023-01-01T02:13:49.141Z,991.3
2023-01-01T02:16:14.231Z,991.3
2023-01-01T02:18:40.371Z,991.3
2023-01-01T02:21:06.536Z,991.4
2023-01-01T02:23:32.851Z,991.4
2023-01-01T02:25:58.675Z,991.3
2023-01-01T02:28:24.721Z,991.3
2023-01-01T02:30:50.832Z,991.3
2023-01-01T02:33:16.921Z,991.3
2023-01-01T02:35:43.060Z,991.5
2023-01-01T02:38:09.093Z,991.5
2023-01-01T02:40:35.193Z,991.5
2023-01-01T02:43:01.296Z,991.5
2023-01-01T02:45:27.395Z,991.5
2023-01-01T02:47:52.505Z,991.4
2023-01-01T02:50:18.611Z,991.4
2023-01-01T02:52:44.686Z,991.5
2023-01-01T02:55:10.806Z,991.4
2023-01-01T02:57:36.962Z,991.3
2023-01-01T03:00:03.313Z,991.4
2023-01-01T03:02:29.060Z,991.4
2023-01-01T03:04:55.178Z,991.5
2023-01-01T03:07:21.246Z,991.6
2023-01-01T03:09:47.371Z,991.5
2023-01-01T03:12:13.462Z,991.6
2023-01-01T03:14:39.558Z,991.5
2023-01-01T03:17:05.641Z,991.5
2023-01-01T03:19:30.769Z,991.6
2023-01-01T03:21:56.888Z,991.6
2023-01-01T03:24:22.953Z,991.5
2023-01-01T03:26:49.389Z,991.5
2023-01-01T03:29:15.145Z,991.4
2023-01-01T03:31:41.266Z,991.5
2023-01-01T03:34:07.413Z,991.5
2023-01-01T03:36:33.449Z,991.6
2023-01-01T03:38:59.563Z,991.6
2023-01-01T03:41:25.839Z,991.6
2023-01-01T03:43:51.718Z,991.6
2023-01-01T03:46:18.126Z,991.6
2023-01-01T03:48:43.914Z,991.8
2023-01-01T03:51:09.024Z,991.9
2023-01-01T03:53:35.111Z,991.8
2023-01-01T03:56:01.251Z,991.9
2023-01-01T03:58:27.299Z,991.8
2023-01-01T04:00:53.422Z,991.8
2023-01-01T04:03:19.506Z,991.9
2023-01-01T04:05:45.594Z,991.9
2023-01-01T04:08:11.691Z,991.8
2023-01-01T04:10:37.778Z,991.8
2023-01-01T04:13:03.875Z,991.8
2023-01-01T04:15:29.968Z,991.9
2023-01-01T04:17:56.115Z,991.9
2023-01-01T04:20:22.166Z,991.9
2023-01-01T04:22:47.282Z,991.9
2023-01-01T04:25:13.439Z,991.9
2023-01-01T04:27:39.464Z,991.9
2023-01-01T04:30:05.572Z,991.9
2023-01-01T04:32:31.664Z,991.9
2023-01-01T04:34:57.761Z,991.8
2023-01-01T04:37:23.875Z,991.8
2023-01-01T04:39:49.951Z,991.8
2023-01-01T04:42:16.050Z,991.8
2023-01-01T04:44:42.170Z,991.7
2023-01-01T04:47:08.224Z,991.8
2023-01-01T04:49:34.322Z,991.8
2023-01-01T04:52:00.487Z,991.8
2023-01-01T04:54:25.549Z,991.8
2023-01-01T04:56:51.675Z,991.8
2023-01-01T04:59:18.074Z,991.7
2023-01-01T05:01:43.826Z,991.7
2023-01-01T05:04:09.911Z,991.8
2023-01-01T05:09:02.173Z,991.9
2023-01-01T05:11:28.292Z,992
2023-01-01T05:13:54.285Z,992.1
2023-01-01T05:16:20.394Z,992.1
2023-01-01T05:18:46.675Z,992.1
2023-01-01T05:21:12.621Z,992.1
2023-01-01T05:23:38.857Z,992.1
2023-01-01T05:26:03.854Z,992.2
2023-01-01T05:28:29.959Z,992.1
2023-01-01T05:30:56.043Z,992.2
2023-01-01T05:33:22.148Z,992.2
2023-01-01T05:35:48.216Z,992.1
2023-01-01T05:38:14.271Z,992.1
2023-01-01T05:40:40.383Z,992.2
2023-01-01T05:43:06.457Z,992.1
2023-01-01T05:45:32.567Z,992.1
2023-01-01T05:47:58.667Z,992.2
2023-01-01T05:50:24.852Z,992.2
2023-01-01T05:52:50.849Z,992.1
2023-01-01T05:55:16.931Z,992.2
2023-01-01T05:57:42.383Z,992.3
2023-01-01T06:00:08.150Z,992.3
2023-01-01T06:02:34.236Z,992.3
2023-01-01T06:05:00.327Z,992.3
2023-01-01T06:07:26.445Z,992.3
2023-01-01T06:09:52.933Z,992.3
2023-01-01T06:12:18.623Z,992.3
2023-01-01T06:14:44.731Z,992.3
2023-01-01T06:17:10.811Z,992.4
2023-01-01T06:19:37.032Z,992.3
2023-01-01T06:22:03.128Z,992.3
2023-01-01T06:24:29.102Z,992.4
2023-01-01T06:26:55.233Z,992.4
2023-01-01T06:29:20.323Z,992.5
2023-01-01T06:31:46.563Z,992.4
2023-01-01T06:34:12.588Z,992.4
2023-01-01T06:36:38.619Z,992.5
2023-01-01T06:39:04.771Z,992.4
2023-01-01T06:41:30.861Z,992.4
2023-01-01T06:43:56.311Z,992.5
2023-01-01T06:46:22.100Z,992.5
2023-01-01T06:48:48.160Z,992.4
2023-01-01T06:51:14.289Z,992.4
2023-01-01T06:53:40.312Z,992.4
2023-01-01T06:56:06.414Z,992.4
2023-01-01T06:58:32.484Z,992.4
2023-01-01T07:00:58.571Z,992.5
2023-01-01T07:03:24.665Z,992.6
2023-01-01T07:05:51.169Z,992.6
2023-01-01T07:08:17.178Z,992.7
2023-01-01T07:10:42.954Z,992.7
2023-01-01T07:13:09.068Z,992.7
2023-01-01T07:15:34.165Z,992.7
2023-01-01T07:18:00.344Z,992.8
2023-01-01T07:20:26.370Z,992.7
2023-01-01T07:22:52.449Z,992.7
2023-01-01T07:25:18.537Z,992.8
2023-01-01T07:27:44.643Z,992.8
2023-01-01T07:30:10.806Z,992.8
2023-01-01T07:32:36.865Z,992.9
2023-01-01T07:35:02.907Z,992.8
2023-01-01T07:37:29.006Z,992.8
2023-01-01T07:39:55.124Z,992.9
2023-01-01T07:42:21.288Z,992.9
2023-01-01T07:44:47.369Z,992.9
2023-01-01T07:47:12.416Z,993
2023-01-01T07:49:38.522Z,993
2023-01-01T07:52:04.594Z,993
2023-01-01T07:54:30.708Z,993.1
2023-01-01T07:56:56.925Z,993.1
2023-01-01T07:59:23.334Z,993.1
2023-01-01T08:01:49.008Z,993.1
2023-01-01T08:04:15.147Z,993.1
2023-01-01T08:06:41.267Z,993.2
2023-01-01T08:09:07.719Z,993.1
2023-01-01T08:11:33.475Z,993.2
2023-01-01T08:13:59.448Z,993.3
2023-01-01T08:16:25.552Z,993.4
2023-01-01T08:18:50.791Z,993.4
2023-01-01T08:21:16.844Z,993.5
2023-01-01T08:23:44.088Z,993.4
2023-01-01T08:26:08.993Z,993.5
2023-01-01T08:28:35.162Z,993.5
2023-01-01T08:31:01.234Z,993.5
2023-01-01T08:33:27.291Z,993.5
2023-01-01T08:35:53.325Z,993.5
2023-01-01T08:38:19.437Z,993.5
2023-01-01T08:40:45.616Z,993.6
2023-01-01T08:43:11.767Z,993.6
2023-01-01T08:45:37.741Z,993.6
2023-01-01T08:48:03.844Z,993.5
2023-01-01T08:50:28.922Z,993.6
2023-01-01T08:52:55.079Z,993.6
2023-01-01T08:55:21.201Z,993.6
2023-01-01T08:57:47.323Z,993.7
2023-01-01T09:00:13.335Z,993.7
2023-01-01T09:02:39.519Z,993.8
2023-01-01T09:05:05.527Z,993.7
2023-01-01T09:07:31.719Z,993.8
2023-01-01T09:09:57.795Z,993.8
2023-01-01T09:12:23.869Z,993.8
2023-01-01T09:14:49.989Z,993.8
2023-01-01T09:17:16.037Z,993.8
2023-01-01T09:19:42.076Z,993.7
2023-01-01T09:22:07.257Z,993.7
2023-01-01T09:24:33.304Z,993.7
2023-01-01T09:26:59.452Z,993.7
2023-01-01T09:29:25.480Z,993.8
2023-01-01T09:31:51.671Z,993.7
2023-01-01T09:34:17.775Z,993.8
2023-01-01T09:36:43.816Z,993.9
2023-01-01T09:39:09.847Z,993.9
2023-01-01T09:41:36.018Z,993.8
2023-01-01T09:44:02.123Z,993.9
2023-01-01T09:46:28.173Z,993.9
2023-01-01T09:48:54.403Z,993.8
2023-01-01T09:51:20.348Z,993.8
2023-01-01T09:53:45.492Z,993.8
2023-01-01T09:56:11.690Z,993.8
2023-01-01T09:58:37.805Z,993.8
2023-01-01T10:01:03.771Z,993.8
2023-01-01T10:03:29.834Z,993.8
2023-01-01T10:05:56.036Z,993.9
2023-01-01T10:08:22.087Z,993.8
2023-01-01T10:10:48.227Z,993.8
2023-01-01T10:13:14.318Z,993.8
2023-01-01T10:15:40.406Z,993.7
2023-01-01T10:18:06.606Z,993.7
2023-01-01T10:20:32.769Z,993.8
2023-01-01T10:22:58.707Z,993.8
2023-01-01T10:25:23.835Z,993.8
2023-01-01T10:27:49.836Z,993.8
2023-01-01T10:30:15.918Z,993.8
2023-01-01T10:32:42.133Z,993.8
2023-01-01T10:35:08.152Z,993.8
2023-01-01T10:37:34.245Z,993.7
2023-01-01T10:40:00.272Z,993.7
2023-01-01T10:42:26.380Z,993.7
2023-01-01T10:44:52.452Z,993.7
2023-01-01T10:47:18.683Z,993.7
2023-01-01T10:49:44.730Z,993.7
2023-01-01T10:52:10.810Z,993.6
2023-01-01T10:54:37.042Z,993.7
2023-01-01T10:57:01.970Z,993.7
2023-01-01T10:59:28.058Z,993.7
2023-01-01T11:01:54.290Z,993.7
2023-01-01T11:04:20.304Z,993.7
2023-01-01T11:06:46.417Z,993.7
2023-01-01T11:09:12.444Z,993.6
2023-01-01T11:11:38.567Z,993.6
2023-01-01T11:14:04.767Z,993.6
2023-01-01T11:16:30.740Z,993.5
2023-01-01T11:18:56.879Z,993.5
2023-01-01T11:21:22.975Z,993.5
2023-01-01T11:23:49.123Z,993.5
2023-01-01T11:26:15.299Z,993.4
2023-01-01T11:28:40.546Z,993.3
2023-01-01T11:31:06.361Z,993.2
2023-01-01T11:33:32.517Z,993.2
2023-01-01T11:35:58.508Z,993.2
2023-01-01T11:38:24.629Z,993.2
2023-01-01T11:40:50.720Z,993.2
2023-01-01T11:43:16.797Z,993.1
2023-01-01T11:45:42.868Z,993.1
2023-01-01T11:48:08.969Z,993.1
2023-01-01T11:50:35.226Z,993.1
2023-01-01T11:53:01.213Z,993.1
2023-01-01T11:55:27.279Z,993.1
2023-01-01T11:57:53.355Z,993.1
2023-01-01T12:00:18.473Z,993.1
2023-01-01T12:02:44.597Z,993
2023-01-01T12:05:10.715Z,992.9
2023-01-01T12:07:36.845Z,992.9
2023-01-01T12:10:02.947Z,992.8
2023-01-01T12:12:29.008Z,992.8
2023-01-01T12:14:55.059Z,992.8
2023-01-01T12:17:21.176Z,992.7
2023-01-01T12:19:47.222Z,992.7
2023-01-01T12:22:13.321Z,992.7
2023-01-01T12:24:39.416Z,992.7
2023-01-01T12:27:05.508Z,992.6
2023-01-01T12:29:31.600Z,992.6
2023-01-01T12:31:57.705Z,992.6
2023-01-01T12:34:23.945Z,992.6
2023-01-01T12:36:50.004Z,992.5
2023-01-01T12:39:16.088Z,992.6
2023-01-01T12:41:42.257Z,992.6
2023-01-01T12:44:08.281Z,992.5
2023-01-01T12:46:34.450Z,992.6
2023-01-01T12:49:00.570Z,992.5
2023-01-01T12:51:26.705Z,992.5
2023-01-01T12:56:18.801Z,992.5
2023-01-01T12:58:44.964Z,992.5
2023-01-01T13:01:11.099Z,992.5
2023-01-01T13:03:37.042Z,992.5
2023-01-01T13:06:02.294Z,992.5
2023-01-01T13:08:28.305Z,992.4
2023-01-01T13:10:54.344Z,992.4
2023-01-01T13:13:20.543Z,992.4
2023-01-01T13:15:46.613Z,992.4
2023-01-01T13:18:12.641Z,992.4
2023-01-01T13:20:38.851Z,992.5
2023-01-01T13:23:04.981Z,992.5
2023-01-01T13:25:31.064Z,992.4
2023-01-01T13:27:57.022Z,992.4
2023-01-01T13:30:23.104Z,992.4
2023-01-01T13:32:49.342Z,992.4
2023-01-01T13:35:15.384Z,992.3
2023-01-01T13:37:40.638Z,992.3
2023-01-01T13:40:06.657Z,992.4
2023-01-01T13:42:32.758Z,992.4
2023-01-01T13:44:58.782Z,992.3
2023-01-01T13:47:24.841Z,992.3
2023-01-01T13:49:50.999Z,992.2
2023-01-01T13:52:17.087Z,992.3
2023-01-01T13:54:43.236Z,992.2
2023-01-01T13:57:09.313Z,992.2
2023-01-01T13:59:35.389Z,992.2
2023-01-01T14:02:01.338Z,992.2
2023-01-01T14:04:27.450Z,992.2
2023-01-01T14:06:53.537Z,992.1
2023-01-01T14:09:18.850Z,992.1
2023-01-01T14:11:44.840Z,992.1
2023-01-01T14:14:10.835Z,992.1
2023-01-01T14:16:36.943Z,992.1
2023-01-01T14:19:03.137Z,992.1
2023-01-01T14:21:29.243Z,992.1
2023-01-01T14:23:55.212Z,992.1
2023-01-01T14:26:21.367Z,992
2023-01-01T14:28:47.401Z,992.1
2023-01-01T14:31:13.532Z,992.1
2023-01-01T14:33:39.804Z,992.2
2023-01-01T14:36:05.713Z,992.2
2023-01-01T14:38:31.808Z,992.2
2023-01-01T14:40:57.032Z,992.1
2023-01-01T14:43:23.001Z,992.1
2023-01-01T14:45:49.145Z,992.2
2023-01-01T14:48:15.201Z,992.2
2023-01-01T14:50:41.321Z,992.2
2023-01-01T14:53:06.416Z,992.2
2023-01-01T14:55:32.511Z,992.2
2023-01-01T14:57:58.650Z,992.1
2023-01-01T15:00:24.691Z,992.2
2023-01-01T15:02:50.926Z,992.2
2023-01-01T15:05:16.892Z,992.2
2023-01-01T15:07:43.134Z,992.3
2023-01-01T15:10:09.129Z,992.2
2023-01-01T15:12:35.478Z,992.2
2023-01-01T15:15:01.343Z,992.2
2023-01-01T15:17:27.471Z,992.1
2023-01-01T15:19:53.566Z,992.1
2023-01-01T15:22:19.536Z,992.2
2023-01-01T15:24:44.742Z,992.2
2023-01-01T15:27:10.745Z,992.2
2023-01-01T15:29:36.866Z,992.2
2023-01-01T15:32:02.966Z,992.2
2023-01-01T15:34:29.079Z,992.3
2023-01-01T15:36:55.153Z,992.2
2023-01-01T15:39:21.225Z,992.2
2023-01-01T15:41:47.334Z,992.2
2023-01-01T15:44:13.414Z,992.2
2023-01-01T15:46:39.687Z,992.1
2023-01-01T15:49:05.656Z,992.1
2023-01-01T15:51:31.719Z,992.1
2023-01-01T15:53:57.847Z,992.2
2023-01-01T15:56:22.985Z,992.2
2023-01-01T15:58:49.018Z,992.1
2023-01-01T16:01:15.230Z,992.1
2023-01-01T16:03:41.194Z,992.2
2023-01-01T16:06:07.323Z,992.2
2023-01-01T16:08:33.483Z,992.2
2023-01-01T16:10:59.565Z,992.1
2023-01-01T16:13:25.634Z,992.2
2023-01-01T16:15:51.708Z,992.1
2023-01-01T16:18:17.941Z,992.1
2023-01-01T16:20:43.932Z,992.1
2023-01-01T16:23:09.979Z,992.1
2023-01-01T16:25:36.184Z,992.1
2023-01-01T16:28:01.180Z,992.1
2023-01-01T16:30:27.387Z,992.1
2023-01-01T16:32:53.401Z,992
2023-01-01T16:35:19.511Z,992
2023-01-01T16:40:11.702Z,991.8
2023-01-01T16:42:37.858Z,991.9
2023-01-01T16:45:03.886Z,991.8
2023-01-01T16:47:29.960Z,991.8
2023-01-01T16:49:56.148Z,991.9
2023-01-01T16:52:22.258Z,991.9
2023-01-01T16:54:48.404Z,991.9
2023-01-01T16:57:14.461Z,991.8
2023-01-01T16:59:39.550Z,991.9
2023-01-01T17:02:05.569Z,991.8
2023-01-01T17:04:31.654Z,991.9
2023-01-01T17:06:57.774Z,991.9
2023-01-01T17:09:23.827Z,991.9
2023-01-01T17:11:49.916Z,991.9
2023-01-01T17:14:16.128Z,991.9
2023-01-01T17:16:42.167Z,991.9
2023-01-01T17:19:08.199Z,991.8
2023-01-01T17:21:34.287Z,991.8
2023-01-01T17:24:00.589Z,991.8
2023-01-01T17:26:26.555Z,991.8
2023-01-01T17:28:52.622Z,991.9
2023-01-01T17:31:17.698Z,991.8
2023-01-01T17:33:43.792Z,991.8
2023-01-01T17:36:09.899Z,991.7
2023-01-01T17:38:36.146Z,991.7
2023-01-01T17:41:02.079Z,991.7
2023-01-01T17:43:28.305Z,991.8
2023-01-01T17:45:54.466Z,991.7
2023-01-01T17:48:20.529Z,991.6
2023-01-01T17:50:46.474Z,991.6
2023-01-01T17:53:12.665Z,991.6
2023-01-01T17:55:38.817Z,991.6
2023-01-01T17:58:04.885Z,991.6
2023-01-01T18:00:30.977Z,991.6
2023-01-01T18:02:56.020Z,991.6
2023-01-01T18:05:22.121Z,991.6
2023-01-01T18:07:48.289Z,991.6
2023-01-01T18:10:14.240Z,991.6
2023-01-01T18:12:40.327Z,991.6
2023-01-01T18:15:06.559Z,991.6
2023-01-01T18:17:32.673Z,991.5
2023-01-01T18:19:58.756Z,991.4
2023-01-01T18:22:24.884Z,991.5
2023-01-01T18:24:50.867Z,991.5
2023-01-01T18:27:17.015Z,991.4
2023-01-01T18:29:43.179Z,991.5
2023-01-01T18:32:09.282Z,991.5
2023-01-01T18:34:34.232Z,991.5
2023-01-01T18:37:00.397Z,991.6
2023-01-01T18:39:26.489Z,991.5
2023-01-01T18:41:52.654Z,991.5
2023-01-01T18:44:18.760Z,991.5
2023-01-01T18:46:44.813Z,991.5
2023-01-01T18:49:10.902Z,991.5
2023-01-01T18:51:37.016Z,991.5
2023-01-01T18:54:03.101Z,991.5
2023-01-01T18:56:29.154Z,991.5
2023-01-01T18:58:55.180Z,991.4
2023-01-01T19:01:21.262Z,991.4
2023-01-01T19:03:47.456Z,991.3
2023-01-01T19:06:12.577Z,991.3
2023-01-01T19:08:38.724Z,991.4
2023-01-01T19:11:04.833Z,991.3
2023-01-01T19:13:30.860Z,991.4
2023-01-01T19:15:56.939Z,991.4
2023-01-01T19:18:23.017Z,991.4
2023-01-01T19:20:49.105Z,991.5
2023-01-01T19:23:15.236Z,991.5
2023-01-01T19:25:41.241Z,991.5
2023-01-01T19:28:07.374Z,991.7
2023-01-01T19:30:33.523Z,991.5
2023-01-01T19:32:59.577Z,991.5
2023-01-01T19:35:25.657Z,991.4
2023-01-01T19:37:50.786Z,991.5
2023-01-01T19:40:16.856Z,991.4
2023-01-01T19:42:42.943Z,991.3
2023-01-01T19:45:09.026Z,991.3
2023-01-01T19:47:35.113Z,991.3
2023-01-01T19:50:01.215Z,991.2
2023-01-01T19:52:27.318Z,991.2
2023-01-01T19:54:53.485Z,991.1
2023-01-01T19:57:19.499Z,991.1
2023-01-01T19:59:45.904Z,991
2023-01-01T20:02:11.715Z,991
2023-01-01T20:04:37.869Z,990.9
2023-01-01T20:07:03.898Z,990.9
2023-01-01T20:09:29.219Z,990.9
2023-01-01T20:11:55.109Z,990.9
2023-01-01T20:14:21.218Z,990.9
2023-01-01T20:16:47.296Z,990.9
2023-01-01T20:19:13.407Z,990.9
2023-01-01T20:21:39.543Z,990.8
2023-01-01T20:24:05.638Z,990.8
2023-01-01T20:26:31.676Z,990.7
2023-01-01T20:28:57.807Z,990.7
2023-01-01T20:31:23.885Z,990.7
2023-01-01T20:33:49.976Z,990.7
2023-01-01T20:36:16.050Z,990.7
2023-01-01T20:38:42.138Z,990.7
2023-01-01T20:41:07.251Z,990.6
2023-01-01T20:43:33.386Z,990.7
2023-01-01T20:45:59.506Z,990.6
2023-01-01T20:48:25.542Z,990.7
2023-01-01T20:50:51.650Z,990.7
2023-01-01T20:53:17.819Z,990.7
2023-01-01T20:55:43.845Z,990.7
2023-01-01T20:58:09.930Z,990.7
2023-01-01T21:00:36.022Z,990.6
2023-01-01T21:03:02.157Z,990.6
2023-01-01T21:05:28.279Z,990.5
2023-01-01T21:07:54.585Z,990.6
2023-01-01T21:12:46.658Z,990.7
2023-01-01T21:15:11.610Z,990.8
2023-01-01T21:17:37.709Z,990.8
2023-01-01T21:20:03.814Z,990.8
2023-01-01T21:22:29.960Z,990.8
2023-01-01T21:24:56.078Z,990.8
2023-01-01T21:27:22.116Z,990.8
2023-01-01T21:29:48.226Z,990.8
2023-01-01T21:32:14.336Z,990.9
2023-01-01T21:34:40.448Z,990.9
2023-01-01T21:37:06.673Z,991
2023-01-01T21:39:32.715Z,990.9
2023-01-01T21:41:58.795Z,991
2023-01-01T21:44:24.826Z,990.9
2023-01-01T21:46:49.992Z,990.9
2023-01-01T21:49:16.096Z,990.9
2023-01-01T21:51:42.075Z,990.9
2023-01-01T21:54:08.224Z,990.9
2023-01-01T21:56:34.348Z,990.9
2023-01-01T21:59:00.422Z,990.9
2023-01-01T22:01:26.471Z,990.8
2023-01-01T22:03:52.677Z,990.9
2023-01-01T22:06:18.655Z,990.9
2023-01-01T22:08:44.762Z,991
2023-01-01T22:11:10.914Z,990.9
2023-01-01T22:13:37.093Z,990.9
2023-01-01T22:16:03.045Z,990.9
2023-01-01T22:18:28.265Z,990.9
2023-01-01T22:20:54.369Z,991
2023-01-01T22:23:20.353Z,991
2023-01-01T22:25:46.481Z,991
2023-01-01T22:28:12.594Z,991
2023-01-01T22:30:38.652Z,990.9
2023-01-01T22:33:04.785Z,991
2023-01-01T22:35:30.817Z,990.9
2023-01-01T22:37:56.926Z,991
2023-01-01T22:40:23.107Z,991
2023-01-01T22:42:49.137Z,991
2023-01-01T22:45:15.186Z,991.1
2023-01-01T22:47:41.376Z,991
2023-01-01T22:50:06.470Z,991
2023-01-01T22:52:32.652Z,991
2023-01-01T22:54:58.608Z,991
2023-01-01T22:57:24.689Z,991
2023-01-01T22:59:50.853Z,991
2023-01-01T23:02:15.894Z,991
2023-01-01T23:04:42.092Z,991
2023-01-01T23:07:08.157Z,991
2023-01-01T23:09:34.325Z,991
2023-01-01T23:12:00.365Z,991
2023-01-01T23:14:26.459Z,991
2023-01-01T23:16:52.557Z,991.1
2023-01-01T23:19:18.586Z,991
2023-01-01T23:21:44.754Z,991
2023-01-01T23:24:10.769Z,991
2023-01-01T23:26:36.859Z,991
2023-01-01T23:29:03.028Z,990.9
2023-01-01T23:31:29.024Z,990.9
2023-01-01T23:33:54.171Z,990.7
2023-01-01T23:36:20.275Z,990.7
2023-01-01T23:38:46.408Z,990.7
2023-01-01T23:41:12.771Z,990.6
2023-01-01T23:43:38.595Z,990.6
2023-01-01T23:46:04.704Z,990.6
2023-01-01T23:48:30.793Z,990.6
2023-01-01T23:50:56.881Z,990.6
2023-01-01T23:53:23.004Z,990.5
2023-01-01T23:55:49.195Z,990.6
2023-01-01T23:58:15.123Z,990.5
